Time;durP1;ratioP1;P1;durP2;ratioP2;P2;SDS_P1;SDS_P2;PMS_P1;PMS_P2;Temp;Humidity;BMP_temperature;BMP_pressure;BME280_temperature;BME280_humidity;BME280_pressure;Samples;Min_cycle;Max_cycle;Signal;HPM_P1;HPM_P2
2023/08/18 00:01:15;;;;;;;16.90;12.00;;;;;;;;;;5076955;28;20058;-82
2023/08/18 00:03:43;;;;;;;11.73;10.52;;;;;;;;;;5077509;28;20053;-81
2023/08/18 00:06:10;;;;;;;14.18;11.13;;;;;;;;;;5076587;28;20064;-82
2023/08/18 00:08:37;;;;;;;13.55;11.55;;;;;;;;;;5077025;28;20045;-81
2023/08/18 00:11:05;;;;;;;14.40;11.55;;;;;;;;;;5072842;28;20078;-81
2023/08/18 00:13:32;;;;;;;18.40;13.20;;;;;;;;;;5072902;28;20053;-81
2023/08/18 00:15:59;;;;;;;17.27;12.32;;;;;;;;;;5072415;28;20060;-81
2023/08/18 00:18:27;;;;;;;14.30;11.75;;;;;;;;;;5071860;28;20084;-81
2023/08/18 00:20:54;;;;;;;17.92;11.40;;;;;;;;;;5072838;28;20114;-81
2023/08/18 00:23:22;;;;;;;19.85;12.38;;;;;;;;;;5072960;28;20058;-81
2023/08/18 00:25:49;;;;;;;14.68;12.98;;;;;;;;;;5071311;28;20048;-80
2023/08/18 00:28:16;;;;;;;15.13;13.15;;;;;;;;;;5073054;28;20098;-81
2023/08/18 00:30:43;;;;;;;18.67;12.98;;;;;;;;;;5072696;28;20090;-81
2023/08/18 00:33:10;;;;;;;15.75;13.23;;;;;;;;;;5073895;28;20055;-81
2023/08/18 00:35:38;;;;;;;15.30;13.45;;;;;;;;;;5074781;28;20052;-81
2023/08/18 00:38:05;;;;;;;27.13;16.58;;;;;;;;;;5072513;28;20052;-82
2023/08/18 00:40:32;;;;;;;19.92;15.50;;;;;;;;;;5074546;28;20465;-81
2023/08/18 00:42:59;;;;;;;14.77;13.30;;;;;;;;;;5076724;28;20056;-81
2023/08/18 00:45:28;;;;;;;15.18;13.60;;;;;;;;;;5078616;28;20078;-82
2023/08/18 00:47:55;;;;;;;17.45;12.48;;;;;;;;;;5079155;28;20499;-81
2023/08/18 00:50:23;;;;;;;15.10;12.50;;;;;;;;;;5077478;28;20098;-81
2023/08/18 00:52:56;;;;;;;14.45;12.45;;;;;;;;;;5076402;28;20048;-81
2023/08/18 00:55:24;;;;;;;16.95;13.90;;;;;;;;;;5076002;28;20140;-81
2023/08/18 00:57:51;;;;;;;14.52;13.15;;;;;;;;;;5087040;28;20106;-81
2023/08/18 01:00:23;;;;;;;19.48;14.10;;;;;;;;;;5088203;28;20098;-81
2023/08/18 01:02:51;;;;;;;17.40;14.75;;;;;;;;;;5086619;28;20048;-81
2023/08/18 01:05:18;;;;;;;18.15;15.25;;;;;;;;;;5087564;28;20045;-81
2023/08/18 01:07:46;;;;;;;19.85;15.80;;;;;;;;;;5083212;28;20075;-81
2023/08/18 01:10:13;;;;;;;17.92;14.30;;;;;;;;;;5085368;28;20127;-81
2023/08/18 01:12:56;;;;;;;25.60;14.90;;;;;;;;;;5084270;28;20040;-82
2023/08/18 01:15:26;;;;;;;21.30;15.68;;;;;;;;;;5084019;28;20408;-81
2023/08/18 01:17:54;;;;;;;20.75;15.52;;;;;;;;;;5083142;28;20090;-81
2023/08/18 01:20:23;;;;;;;17.35;14.13;;;;;;;;;;5083007;28;20076;-81
2023/08/18 01:22:54;;;;;;;21.83;16.73;;;;;;;;;;5081597;28;20503;-81
2023/08/18 01:25:21;;;;;;;27.27;17.38;;;;;;;;;;5083326;28;20040;-82
2023/08/18 01:27:48;;;;;;;17.48;14.70;;;;;;;;;;5081373;28;20052;-81
2023/08/18 01:30:16;;;;;;;18.63;14.50;;;;;;;;;;5078914;28;20049;-81
2023/08/18 01:32:47;;;;;;;16.67;13.40;;;;;;;;;;5078851;28;20040;-81
2023/08/18 01:35:15;;;;;;;17.55;13.52;;;;;;;;;;5079206;28;20060;-81
2023/08/18 01:37:43;;;;;;;15.63;13.95;;;;;;;;;;5079140;28;20056;-81
2023/08/18 01:40:12;;;;;;;22.33;15.27;;;;;;;;;;5079714;28;20079;-82
2023/08/18 01:42:39;;;;;;;17.13;13.90;;;;;;;;;;5078514;28;20048;-81
2023/08/18 01:45:11;;;;;;;16.60;13.98;;;;;;;;;;5076828;28;20060;-81
2023/08/18 01:47:38;;;;;;;16.88;13.20;;;;;;;;;;5074635;28;20094;-80
2023/08/18 01:50:06;;;;;;;15.95;13.68;;;;;;;;;;5074361;28;20083;-80
2023/08/18 01:52:33;;;;;;;15.50;12.65;;;;;;;;;;5073818;28;20083;-80
2023/08/18 01:55:00;;;;;;;14.43;12.93;;;;;;;;;;5074370;28;20044;-81
2023/08/18 01:57:28;;;;;;;14.60;11.90;;;;;;;;;;5074371;28;20078;-81
2023/08/18 01:59:55;;;;;;;13.38;11.20;;;;;;;;;;5073992;28;20071;-80
2023/08/18 02:02:22;;;;;;;15.98;12.13;;;;;;;;;;5074456;28;20098;-80
2023/08/18 02:04:50;;;;;;;16.60;10.98;;;;;;;;;;5073715;28;20076;-80
2023/08/18 02:07:17;;;;;;;13.05;10.98;;;;;;;;;;5073338;28;20422;-80
2023/08/18 02:09:44;;;;;;;12.15;10.88;;;;;;;;;;5073924;28;20055;-81
2023/08/18 02:12:12;;;;;;;11.98;10.88;;;;;;;;;;5074343;28;20079;-80
2023/08/18 02:14:39;;;;;;;13.05;11.68;;;;;;;;;;5074102;28;20084;-80
2023/08/18 02:17:06;;;;;;;14.98;12.18;;;;;;;;;;5074065;28;20055;-81
2023/08/18 02:19:33;;;;;;;12.35;11.07;;;;;;;;;;5074382;28;20049;-80
2023/08/18 02:22:01;;;;;;;14.38;12.20;;;;;;;;;;5078396;28;20057;-80
2023/08/18 02:24:28;;;;;;;14.75;12.68;;;;;;;;;;5075282;28;20457;-80
2023/08/18 02:26:56;;;;;;;12.40;11.10;;;;;;;;;;5074572;28;20044;-80
2023/08/18 02:29:23;;;;;;;14.40;12.05;;;;;;;;;;5074626;28;20044;-80
2023/08/18 02:31:52;;;;;;;10.77;9.77;;;;;;;;;;5074223;28;20049;-81
2023/08/18 02:34:19;;;;;;;12.10;10.90;;;;;;;;;;5088042;28;20094;-82
2023/08/18 02:36:47;;;;;;;12.48;10.77;;;;;;;;;;5088368;28;20048;-81
2023/08/18 02:39:14;;;;;;;19.13;10.00;;;;;;;;;;5088433;28;20045;-81
2023/08/18 02:41:41;;;;;;;11.98;10.77;;;;;;;;;;5088322;28;20074;-81
2023/08/18 02:44:08;;;;;;;11.85;10.55;;;;;;;;;;5086440;28;20083;-80
2023/08/18 02:46:35;;;;;;;12.50;10.45;;;;;;;;;;5083397;28;20106;-81
2023/08/18 02:49:03;;;;;;;11.57;10.43;;;;;;;;;;5082631;28;20052;-81
2023/08/18 02:51:30;;;;;;;12.05;10.85;;;;;;;;;;5082282;28;20052;-81
2023/08/18 02:53:57;;;;;;;14.18;11.77;;;;;;;;;;5079836;28;20044;-80
2023/08/18 02:56:24;;;;;;;21.75;11.40;;;;;;;;;;5082024;28;20135;-81
2023/08/18 02:58:52;;;;;;;12.30;10.48;;;;;;;;;;5081600;28;20048;-81
2023/08/18 03:01:19;;;;;;;14.77;12.10;;;;;;;;;;5079233;28;20053;-81
2023/08/18 03:03:46;;;;;;;12.75;11.50;;;;;;;;;;5080633;28;20132;-81
2023/08/18 03:06:13;;;;;;;12.13;10.75;;;;;;;;;;5078052;28;20048;-81
2023/08/18 03:08:41;;;;;;;16.85;11.50;;;;;;;;;;5078627;28;20101;-81
2023/08/18 03:11:08;;;;;;;15.32;10.23;;;;;;;;;;5078133;28;20051;-81
2023/08/18 03:13:35;;;;;;;9.98;9.00;;;;;;;;;;5078718;28;20045;-81
2023/08/18 03:16:04;;;;;;;10.23;9.15;;;;;;;;;;5080585;28;20060;-81
2023/08/18 03:18:31;;;;;;;11.02;9.93;;;;;;;;;;5076484;28;20052;-81
2023/08/18 03:20:59;;;;;;;10.90;8.77;;;;;;;;;;5077100;28;20396;-81
2023/08/18 03:23:27;;;;;;;11.88;10.35;;;;;;;;;;5080176;28;20135;-81
2023/08/18 03:26:04;;;;;;;16.30;10.48;;;;;;;;;;5072257;28;20040;-80
2023/08/18 03:28:32;;;;;;;9.98;8.80;;;;;;;;;;5072096;28;20092;-81
2023/08/18 03:31:00;;;;;;;10.80;9.80;;;;;;;;;;5073896;28;20048;-81
2023/08/18 03:33:28;;;;;;;11.50;10.40;;;;;;;;;;5073936;28;20049;-80
2023/08/18 03:35:55;;;;;;;10.80;9.90;;;;;;;;;;5077728;28;20135;-80
2023/08/18 03:38:23;;;;;;;10.60;9.55;;;;;;;;;;5073237;28;20056;-80
2023/08/18 03:40:50;;;;;;;12.25;9.80;;;;;;;;;;5073068;28;20052;-81
2023/08/18 03:43:18;;;;;;;11.05;9.20;;;;;;;;;;5072905;28;20075;-81
2023/08/18 03:45:47;;;;;;;9.77;8.77;;;;;;;;;;5072248;28;20098;-79
2023/08/18 03:48:14;;;;;;;10.27;9.35;;;;;;;;;;5072624;28;20072;-80
2023/08/18 03:50:41;;;;;;;11.55;10.30;;;;;;;;;;5073487;28;20415;-80
2023/08/18 03:53:09;;;;;;;10.52;9.57;;;;;;;;;;5075513;28;20045;-81
2023/08/18 03:55:36;;;;;;;10.60;8.82;;;;;;;;;;5079012;28;20041;-80
2023/08/18 03:58:03;;;;;;;9.45;8.50;;;;;;;;;;5077268;28;20102;-80
2023/08/18 04:00:30;;;;;;;9.77;8.70;;;;;;;;;;5077307;28;20048;-81
2023/08/18 04:02:58;;;;;;;9.88;8.88;;;;;;;;;;5077099;28;20044;-82
2023/08/18 04:05:25;;;;;;;8.93;8.13;;;;;;;;;;5079000;28;20056;-82
2023/08/18 04:07:52;;;;;;;8.80;7.68;;;;;;;;;;5078059;28;20503;-81
2023/08/18 04:10:19;;;;;;;9.68;8.77;;;;;;;;;;5081107;28;20044;-81
2023/08/18 04:12:47;;;;;;;11.10;8.82;;;;;;;;;;5083850;28;20044;-81
2023/08/18 04:15:14;;;;;;;9.68;8.68;;;;;;;;;;5083198;28;20565;-81
2023/08/18 04:17:41;;;;;;;9.70;8.57;;;;;;;;;;5085324;28;20057;-81
2023/08/18 04:20:09;;;;;;;10.15;8.25;;;;;;;;;;5082196;28;20056;-81
2023/08/18 04:22:37;;;;;;;10.18;7.65;;;;;;;;;;5085581;28;20044;-82
2023/08/18 04:25:05;;;;;;;12.45;8.18;;;;;;;;;;5080762;28;20055;-81
2023/08/18 04:27:32;;;;;;;8.95;8.10;;;;;;;;;;5079552;28;20478;-82
2023/08/18 04:29:59;;;;;;;11.27;9.05;;;;;;;;;;5080709;28;20048;-81
2023/08/18 04:32:26;;;;;;;11.93;8.65;;;;;;;;;;5079026;28;20098;-81
2023/08/18 04:34:54;;;;;;;9.05;8.23;;;;;;;;;;5081259;28;20044;-81
2023/08/18 04:37:21;;;;;;;8.25;7.55;;;;;;;;;;5079082;28;20051;-81
2023/08/18 04:39:48;;;;;;;9.10;8.20;;;;;;;;;;5079030;28;20045;-81
2023/08/18 04:42:16;;;;;;;9.95;8.52;;;;;;;;;;5076729;28;20052;-81
2023/08/18 04:44:43;;;;;;;8.02;7.20;;;;;;;;;;5079228;28;20059;-81
2023/08/18 04:47:10;;;;;;;10.45;7.93;;;;;;;;;;5083611;28;20054;-81
2023/08/18 04:49:37;;;;;;;8.90;7.93;;;;;;;;;;5081874;28;20069;-81
2023/08/18 04:52:07;;;;;;;8.35;7.55;;;;;;;;;;5081978;28;20060;-80
2023/08/18 04:54:35;;;;;;;8.82;7.75;;;;;;;;;;5082551;28;20059;-81
2023/08/18 04:57:07;;;;;;;8.38;7.60;;;;;;;;;;5080931;28;20052;-81
2023/08/18 04:59:34;;;;;;;10.05;7.57;;;;;;;;;;5080254;28;20059;-81
2023/08/18 05:02:01;;;;;;;8.27;7.38;;;;;;;;;;5078117;28;20598;-80
2023/08/18 05:04:28;;;;;;;7.60;6.90;;;;;;;;;;5074007;28;20052;-81
2023/08/18 05:06:56;;;;;;;8.50;7.70;;;;;;;;;;5072266;28;20102;-80
2023/08/18 05:09:23;;;;;;;8.77;7.97;;;;;;;;;;5075893;28;20052;-80
2023/08/18 05:11:50;;;;;;;7.88;7.20;;;;;;;;;;5074709;28;20052;-81
2023/08/18 05:14:18;;;;;;;7.55;6.80;;;;;;;;;;5078985;28;20391;-81
2023/08/18 05:16:45;;;;;;;10.60;7.18;;;;;;;;;;5080641;28;20052;-82
2023/08/18 05:19:12;;;;;;;7.43;6.93;;;;;;;;;;5080475;28;20080;-81
2023/08/18 05:21:40;;;;;;;9.38;6.90;;;;;;;;;;5081838;28;20052;-82
2023/08/18 05:24:07;;;;;;;8.75;7.80;;;;;;;;;;5081536;28;20045;-82
2023/08/18 05:26:34;;;;;;;7.65;6.97;;;;;;;;;;5081253;28;20036;-81
2023/08/18 05:29:01;;;;;;;7.75;6.57;;;;;;;;;;5085719;28;20044;-81
2023/08/18 05:31:30;;;;;;;8.23;7.43;;;;;;;;;;5087316;28;20048;-82
2023/08/18 05:33:57;;;;;;;8.02;7.32;;;;;;;;;;5087745;28;20454;-82
2023/08/18 05:36:25;;;;;;;6.97;6.47;;;;;;;;;;5087463;28;20075;-81
2023/08/18 05:38:52;;;;;;;8.35;6.75;;;;;;;;;;5087765;28;20540;-81
2023/08/18 05:41:19;;;;;;;9.75;6.82;;;;;;;;;;5087774;28;20481;-82
2023/08/18 05:43:46;;;;;;;6.78;6.18;;;;;;;;;;5089064;28;20056;-82
2023/08/18 05:46:15;;;;;;;6.72;6.13;;;;;;;;;;5089070;28;20082;-82
2023/08/18 05:48:42;;;;;;;7.30;6.45;;;;;;;;;;5093555;28;20029;-81
2023/08/18 05:51:10;;;;;;;7.95;7.25;;;;;;;;;;5099071;28;20135;-81
2023/08/18 05:53:37;;;;;;;7.53;6.82;;;;;;;;;;5099240;28;20048;-82
2023/08/18 05:56:04;;;;;;;6.32;5.82;;;;;;;;;;5097931;28;20057;-82
2023/08/18 05:58:32;;;;;;;7.25;5.75;;;;;;;;;;5096479;28;20045;-82
2023/08/18 06:00:59;;;;;;;5.32;4.90;;;;;;;;;;5083944;28;20045;-82
2023/08/18 06:03:26;;;;;;;5.93;5.43;;;;;;;;;;5083420;28;20044;-82
2023/08/18 06:05:53;;;;;;;11.88;5.72;;;;;;;;;;5082040;28;20049;-82
2023/08/18 06:08:21;;;;;;;6.50;5.90;;;;;;;;;;5080337;28;20041;-81
2023/08/18 06:10:48;;;;;;;9.80;6.78;;;;;;;;;;5079843;28;20487;-82
2023/08/18 06:13:15;;;;;;;8.68;6.07;;;;;;;;;;5081849;28;20507;-82
2023/08/18 06:15:42;;;;;;;8.75;6.75;;;;;;;;;;5080294;28;20552;-82
2023/08/18 06:18:10;;;;;;;7.13;6.40;;;;;;;;;;5081798;28;20056;-81
2023/08/18 06:20:37;;;;;;;7.78;6.10;;;;;;;;;;5077755;28;20056;-82
2023/08/18 06:23:04;;;;;;;9.15;6.45;;;;;;;;;;5078663;28;20525;-82
2023/08/18 06:25:31;;;;;;;6.30;5.70;;;;;;;;;;5077853;28;20074;-83
2023/08/18 06:27:59;;;;;;;7.78;6.80;;;;;;;;;;5077941;28;20114;-82
2023/08/18 06:30:26;;;;;;;7.18;6.20;;;;;;;;;;5082795;28;20499;-82
2023/08/18 06:32:53;;;;;;;6.13;5.60;;;;;;;;;;5081086;28;20071;-82
2023/08/18 06:35:20;;;;;;;18.70;9.13;;;;;;;;;;5080231;28;20054;-82
2023/08/18 06:37:48;;;;;;;7.05;4.95;;;;;;;;;;5077912;28;20041;-82
2023/08/18 06:40:15;;;;;;;4.90;3.90;;;;;;;;;;5078951;28;20048;-82
2023/08/18 06:42:42;;;;;;;4.80;3.60;;;;;;;;;;5075303;28;20051;-81
2023/08/18 06:45:09;;;;;;;4.22;3.85;;;;;;;;;;5074579;28;20052;-82
2023/08/18 06:47:36;;;;;;;4.47;4.13;;;;;;;;;;5075091;28;20048;-82
2023/08/18 06:50:09;;;;;;;6.65;3.88;;;;;;;;;;5073537;28;20195;-81
2023/08/18 06:52:36;;;;;;;4.23;3.90;;;;;;;;;;5073666;28;20419;-81
2023/08/18 06:55:13;;;;;;;5.93;4.10;;;;;;;;;;5073664;28;20106;-81
2023/08/18 06:57:41;;;;;;;4.78;4.47;;;;;;;;;;5075140;28;20588;-81
2023/08/18 07:00:13;;;;;;;4.53;4.13;;;;;;;;;;5073776;28;20136;-82
2023/08/18 07:02:40;;;;;;;5.38;4.45;;;;;;;;;;5073565;28;20052;-81
2023/08/18 07:05:08;;;;;;;4.95;4.60;;;;;;;;;;5074594;28;20048;-81
2023/08/18 07:07:35;;;;;;;6.82;5.20;;;;;;;;;;5073965;28;20106;-82
2023/08/18 07:10:02;;;;;;;7.55;5.70;;;;;;;;;;5074202;28;20105;-82
2023/08/18 07:12:29;;;;;;;6.22;5.65;;;;;;;;;;5074682;28;20052;-82
2023/08/18 07:14:57;;;;;;;6.22;5.20;;;;;;;;;;5073871;28;20048;-82
2023/08/18 07:17:24;;;;;;;8.57;6.00;;;;;;;;;;5073631;28;20056;-82
2023/08/18 07:19:52;;;;;;;6.35;5.50;;;;;;;;;;5072824;28;20048;-81
2023/08/18 07:22:19;;;;;;;8.10;5.47;;;;;;;;;;5072436;28;20477;-82
2023/08/18 07:24:46;;;;;;;5.50;5.00;;;;;;;;;;5076944;28;20044;-82
2023/08/18 07:27:14;;;;;;;14.05;5.47;;;;;;;;;;5087862;28;20045;-82
2023/08/18 07:29:41;;;;;;;8.32;4.40;;;;;;;;;;5086531;28;20105;-82
2023/08/18 07:32:09;;;;;;;4.97;4.53;;;;;;;;;;5085254;28;20068;-83
2023/08/18 07:34:36;;;;;;;5.55;4.63;;;;;;;;;;5081133;28;20048;-83
2023/08/18 07:37:05;;;;;;;8.13;4.82;;;;;;;;;;5080189;28;20055;-83
2023/08/18 07:39:32;;;;;;;5.60;4.32;;;;;;;;;;5081721;28;20049;-82
2023/08/18 07:42:00;;;;;;;4.88;4.28;;;;;;;;;;5080437;28;20044;-82
2023/08/18 07:44:27;;;;;;;5.18;4.25;;;;;;;;;;5082146;28;20954;-82
2023/08/18 07:46:54;;;;;;;4.32;4.00;;;;;;;;;;5084716;28;20127;-82
2023/08/18 07:49:21;;;;;;;9.25;4.43;;;;;;;;;;5081406;28;20040;-83
2023/08/18 07:51:49;;;;;;;7.45;4.93;;;;;;;;;;5081992;28;20045;-83
2023/08/18 07:54:16;;;;;;;9.68;4.25;;;;;;;;;;5081486;28;20070;-82
2023/08/18 07:56:44;;;;;;;11.32;4.68;;;;;;;;;;5081346;28;20461;-83
2023/08/18 07:59:11;;;;;;;10.80;4.07;;;;;;;;;;5080256;28;20461;-83
2023/08/18 08:01:38;;;;;;;4.63;3.58;;;;;;;;;;5082113;28;20494;-82
2023/08/18 08:04:05;;;;;;;7.18;4.30;;;;;;;;;;5083450;28;20048;-83
2023/08/18 08:06:33;;;;;;;4.80;3.80;;;;;;;;;;5080896;28;20056;-82
2023/08/18 08:09:00;;;;;;;3.50;3.30;;;;;;;;;;5080981;28;20083;-83
2023/08/18 08:11:27;;;;;;;4.28;3.88;;;;;;;;;;5082544;28;20109;-83
2023/08/18 08:13:55;;;;;;;4.15;3.80;;;;;;;;;;5090714;28;20074;-82
2023/08/18 08:16:22;;;;;;;4.72;4.25;;;;;;;;;;5084152;28;20503;-83
2023/08/18 08:18:49;;;;;;;3.72;3.42;;;;;;;;;;5082038;28;20053;-83
2023/08/18 08:21:17;;;;;;;6.15;3.70;;;;;;;;;;5081603;28;20056;-83
2023/08/18 08:23:44;;;;;;;4.47;4.00;;;;;;;;;;5080335;28;20121;-83
2023/08/18 08:26:15;;;;;;;5.50;3.88;;;;;;;;;;5079141;28;20048;-83
2023/08/18 08:28:44;;;;;;;9.02;4.15;;;;;;;;;;5081171;28;20044;-83
2023/08/18 08:31:11;;;;;;;4.25;3.95;;;;;;;;;;5079404;28;20044;-83
2023/08/18 08:33:38;;;;;;;3.88;3.60;;;;;;;;;;5078840;28;20067;-82
2023/08/18 08:36:05;;;;;;;3.78;3.35;;;;;;;;;;5079165;28;20052;-83
2023/08/18 08:38:34;;;;;;;3.88;3.67;;;;;;;;;;5080521;28;20056;-84
2023/08/18 08:41:01;;;;;;;6.07;3.67;;;;;;;;;;5078193;28;20568;-82
2023/08/18 08:43:29;;;;;;;4.70;3.47;;;;;;;;;;5077424;28;20045;-83
2023/08/18 08:45:58;;;;;;;3.95;3.75;;;;;;;;;;5078319;28;20076;-82
2023/08/18 08:48:30;;;;;;;3.90;3.60;;;;;;;;;;5074337;28;20063;-83
2023/08/18 08:50:58;;;;;;;3.90;3.70;;;;;;;;;;5077759;28;20048;-82
2023/08/18 08:53:30;;;;;;;4.03;3.75;;;;;;;;;;5076260;28;20105;-82
2023/08/18 08:55:59;;;;;;;4.13;3.83;;;;;;;;;;5074999;28;20049;-83
2023/08/18 08:58:29;;;;;;;4.38;4.07;;;;;;;;;;5079238;28;20063;-83
2023/08/18 09:00:57;;;;;;;3.72;3.53;;;;;;;;;;5075878;28;20059;-82
2023/08/18 09:03:24;;;;;;;3.83;3.50;;;;;;;;;;5082995;28;20049;-83
2023/08/18 09:05:51;;;;;;;3.50;3.30;;;;;;;;;;5088360;28;20057;-83
2023/08/18 09:08:18;;;;;;;5.63;4.10;;;;;;;;;;5088709;28;20052;-83
2023/08/18 09:10:46;;;;;;;4.20;3.80;;;;;;;;;;5085449;28;20628;-83
2023/08/18 09:13:13;;;;;;;4.50;4.10;;;;;;;;;;5087800;28;20044;-83
2023/08/18 09:15:44;;;;;;;4.75;4.35;;;;;;;;;;5084535;28;20044;-82
2023/08/18 09:18:12;;;;;;;3.92;3.50;;;;;;;;;;5085046;28;20055;-82
2023/08/18 09:20:42;;;;;;;7.68;3.65;;;;;;;;;;5086085;28;20049;-83
2023/08/18 09:23:09;;;;;;;3.72;3.42;;;;;;;;;;5081378;28;20130;-84
2023/08/18 09:25:37;;;;;;;4.00;3.78;;;;;;;;;;5082398;28;20056;-83
2023/08/18 09:28:05;;;;;;;3.70;3.40;;;;;;;;;;5082059;28;20106;-83
2023/08/18 09:30:41;;;;;;;5.00;3.83;;;;;;;;;;5080952;28;20052;-83
2023/08/18 09:33:09;;;;;;;3.80;3.60;;;;;;;;;;5080235;28;20469;-83
2023/08/18 09:35:36;;;;;;;3.58;3.28;;;;;;;;;;5085197;28;20072;-82
2023/08/18 09:38:04;;;;;;;3.55;3.10;;;;;;;;;;5084466;28;20044;-82
2023/08/18 09:40:31;;;;;;;4.43;3.88;;;;;;;;;;5081827;28;20426;-81
2023/08/18 09:42:59;;;;;;;3.53;3.15;;;;;;;;;;5080951;28;20503;-81
2023/08/18 09:45:34;;;;;;;3.65;2.95;;;;;;;;;;5078005;28;20131;-82
2023/08/18 09:48:02;;;;;;;3.50;3.30;;;;;;;;;;5080224;28;20052;-82
2023/08/18 09:50:31;;;;;;;4.50;3.13;;;;;;;;;;5079554;28;20131;-82
2023/08/18 09:52:58;;;;;;;3.00;2.80;;;;;;;;;;5078673;28;20064;-82
2023/08/18 09:55:29;;;;;;;5.03;3.00;;;;;;;;;;5079172;28;20048;-84
2023/08/18 09:57:57;;;;;;;4.75;3.20;;;;;;;;;;5079374;28;20059;-82
2023/08/18 10:00:25;;;;;;;3.10;2.90;;;;;;;;;;5079712;28;20412;-83
2023/08/18 10:02:55;;;;;;;3.28;3.00;;;;;;;;;;5079563;28;20063;-84
2023/08/18 10:05:23;;;;;;;3.15;2.90;;;;;;;;;;5079120;28;20418;-84
2023/08/18 10:07:51;;;;;;;2.67;2.47;;;;;;;;;;5078548;28;20056;-81
2023/08/18 10:10:18;;;;;;;2.75;2.55;;;;;;;;;;5080356;28;20044;-81
2023/08/18 10:12:46;;;;;;;4.07;2.90;;;;;;;;;;5080362;28;20049;-83
2023/08/18 10:15:14;;;;;;;3.05;2.50;;;;;;;;;;5079098;28;20052;-82
2023/08/18 10:17:42;;;;;;;3.00;2.80;;;;;;;;;;5077966;28;20044;-83
2023/08/18 10:20:11;;;;;;;2.63;2.53;;;;;;;;;;5079025;28;20086;-82
2023/08/18 10:22:38;;;;;;;3.25;2.95;;;;;;;;;;5078685;28;20554;-81
2023/08/18 10:25:06;;;;;;;3.00;2.80;;;;;;;;;;5081406;28;20040;-82
2023/08/18 10:27:36;;;;;;;3.45;3.15;;;;;;;;;;5087555;28;20049;-83
2023/08/18 10:30:10;;;;;;;4.95;3.28;;;;;;;;;;5085554;28;20048;-82
2023/08/18 10:32:37;;;;;;;4.03;3.20;;;;;;;;;;5083157;28;20044;-82
2023/08/18 10:35:23;;;;;;;3.90;3.20;;;;;;;;;;5081202;28;20044;-82
2023/08/18 10:37:51;;;;;;;4.82;2.85;;;;;;;;;;5082075;28;20041;-83
2023/08/18 10:40:24;;;;;;;4.13;3.15;;;;;;;;;;5082161;28;20044;-83
2023/08/18 10:42:53;;;;;;;3.60;2.75;;;;;;;;;;5083010;28;20052;-83
2023/08/18 10:45:28;;;;;;;2.28;2.15;;;;;;;;;;5085482;28;20044;-82
2023/08/18 10:47:57;;;;;;;3.00;2.80;;;;;;;;;;5082432;28;20044;-84
2023/08/18 10:50:26;;;;;;;3.38;3.13;;;;;;;;;;5084137;28;20396;-82
2023/08/18 10:52:57;;;;;;;2.95;2.72;;;;;;;;;;5082462;28;20075;-83
2023/08/18 10:55:30;;;;;;;2.65;2.47;;;;;;;;;;5079856;28;20045;-82
2023/08/18 10:57:58;;;;;;;5.63;2.50;;;;;;;;;;5083108;28;20048;-82
2023/08/18 11:00:25;;;;;;;2.78;2.50;;;;;;;;;;5081945;28;20041;-81
2023/08/18 11:02:52;;;;;;;2.55;2.45;;;;;;;;;;5080012;28;20118;-82
2023/08/18 11:05:20;;;;;;;4.55;2.67;;;;;;;;;;5080128;28;20048;-82
2023/08/18 11:07:48;;;;;;;3.90;2.20;;;;;;;;;;5080096;28;20049;-82
2023/08/18 11:10:19;;;;;;;2.95;2.65;;;;;;;;;;5081849;28;20456;-82
2023/08/18 11:12:47;;;;;;;1.90;1.80;;;;;;;;;;5081574;28;20061;-82
2023/08/18 11:15:16;;;;;;;2.08;1.90;;;;;;;;;;5081778;28;20048;-81
2023/08/18 11:17:43;;;;;;;2.47;2.38;;;;;;;;;;5088077;28;20052;-81
2023/08/18 11:20:14;;;;;;;2.65;2.45;;;;;;;;;;5086419;28;20048;-82
2023/08/18 11:22:42;;;;;;;2.58;2.38;;;;;;;;;;5085095;28;20044;-82
2023/08/18 11:25:14;;;;;;;2.85;2.65;;;;;;;;;;5084626;28;20045;-83
2023/08/18 11:27:44;;;;;;;3.43;2.90;;;;;;;;;;5081027;28;20078;-81
2023/08/18 11:30:13;;;;;;;2.80;2.70;;;;;;;;;;5083653;28;20648;-82
2023/08/18 11:32:41;;;;;;;3.30;3.10;;;;;;;;;;5082019;28;20091;-84
2023/08/18 11:35:09;;;;;;;3.25;3.05;;;;;;;;;;5082989;28;20079;-82
2023/08/18 11:37:39;;;;;;;3.38;2.60;;;;;;;;;;5084125;28;20047;-83
2023/08/18 11:40:09;;;;;;;2.75;2.30;;;;;;;;;;5082920;28;20053;-82
2023/08/18 11:42:38;;;;;;;3.33;2.35;;;;;;;;;;5082548;28;20110;-82
2023/08/18 11:45:07;;;;;;;3.22;3.03;;;;;;;;;;5082863;28;20107;-82
2023/08/18 11:47:36;;;;;;;3.47;3.28;;;;;;;;;;5079707;28;20056;-83
2023/08/18 11:50:05;;;;;;;3.20;3.10;;;;;;;;;;5083974;28;20072;-83
2023/08/18 11:52:42;;;;;;;3.25;3.00;;;;;;;;;;5083350;28;20048;-83
2023/08/18 11:55:10;;;;;;;3.50;3.30;;;;;;;;;;5084170;28;20395;-84
2023/08/18 11:57:41;;;;;;;3.50;3.35;;;;;;;;;;5085229;28;20048;-82
2023/08/18 12:00:13;;;;;;;3.40;3.30;;;;;;;;;;5086404;28;20051;-81
2023/08/18 12:02:42;;;;;;;4.28;3.97;;;;;;;;;;5082527;28;20070;-82
2023/08/18 12:05:18;;;;;;;3.92;3.63;;;;;;;;;;5074211;28;20044;-81
2023/08/18 12:07:45;;;;;;;3.75;3.45;;;;;;;;;;5079092;28;20041;-83
2023/08/18 12:10:12;;;;;;;4.35;3.45;;;;;;;;;;5085915;28;20538;-82
2023/08/18 12:12:40;;;;;;;5.65;4.28;;;;;;;;;;5085168;28;20048;-82
2023/08/18 12:15:07;;;;;;;4.55;3.45;;;;;;;;;;5084989;28;20048;-81
2023/08/18 12:17:34;;;;;;;3.25;3.05;;;;;;;;;;5084751;28;20109;-82
2023/08/18 12:20:06;;;;;;;3.55;3.33;;;;;;;;;;5085207;28;20048;-83
2023/08/18 12:22:33;;;;;;;4.15;3.75;;;;;;;;;;5087722;28;20059;-83
2023/08/18 12:25:00;;;;;;;4.25;3.83;;;;;;;;;;5090380;28;20049;-82
2023/08/18 12:27:29;;;;;;;5.22;3.85;;;;;;;;;;5084229;28;20049;-82
2023/08/18 12:29:56;;;;;;;3.92;3.63;;;;;;;;;;5084612;28;20052;-83
2023/08/18 12:32:23;;;;;;;3.88;3.67;;;;;;;;;;5082176;28;20053;-82
2023/08/18 12:34:51;;;;;;;3.97;3.58;;;;;;;;;;5081475;28;20051;-82
2023/08/18 12:37:19;;;;;;;4.53;3.67;;;;;;;;;;5086795;28;20048;-82
2023/08/18 12:39:47;;;;;;;4.13;3.70;;;;;;;;;;5088005;28;20044;-82
2023/08/18 12:42:14;;;;;;;3.78;3.25;;;;;;;;;;5086929;28;20093;-81
2023/08/18 12:44:42;;;;;;;6.65;3.90;;;;;;;;;;5084516;28;20476;-83
2023/08/18 12:47:09;;;;;;;3.95;3.50;;;;;;;;;;5087622;28;20048;-82
2023/08/18 12:49:36;;;;;;;3.90;3.40;;;;;;;;;;5088227;28;20052;-82
2023/08/18 12:52:04;;;;;;;5.53;3.85;;;;;;;;;;5085920;28;20056;-82
2023/08/18 12:54:32;;;;;;;3.70;3.50;;;;;;;;;;5083280;28;20074;-82
2023/08/18 12:56:59;;;;;;;3.67;3.47;;;;;;;;;;5085399;28;20082;-80
2023/08/18 12:59:26;;;;;;;3.78;3.53;;;;;;;;;;5087681;28;20045;-82
2023/08/18 13:01:53;;;;;;;3.08;2.88;;;;;;;;;;5085486;28;20052;-81
2023/08/18 13:04:21;;;;;;;4.65;3.08;;;;;;;;;;5084785;28;20045;-82
2023/08/18 13:06:48;;;;;;;3.97;3.75;;;;;;;;;;5081205;28;20566;-80
2023/08/18 13:09:15;;;;;;;3.28;3.08;;;;;;;;;;5082719;28;20056;-81
2023/08/18 13:11:43;;;;;;;6.20;3.42;;;;;;;;;;5080692;28;20049;-81
2023/08/18 13:14:10;;;;;;;3.40;3.20;;;;;;;;;;5081163;28;20056;-82
2023/08/18 13:16:41;;;;;;;5.30;2.90;;;;;;;;;;5081819;28;20049;-82
2023/08/18 13:19:12;;;;;;;3.35;2.90;;;;;;;;;;5079725;28;20443;-81
2023/08/18 13:21:39;;;;;;;2.67;2.58;;;;;;;;;;5081224;28;20048;-80
2023/08/18 13:24:07;;;;;;;2.70;2.60;;;;;;;;;;5079355;28;20048;-82
2023/08/18 13:26:34;;;;;;;3.13;2.78;;;;;;;;;;5081201;28;20094;-81
2023/08/18 13:29:01;;;;;;;2.65;2.55;;;;;;;;;;5078351;28;20060;-82
2023/08/18 13:31:29;;;;;;;4.10;2.58;;;;;;;;;;5080032;28;20106;-82
2023/08/18 13:33:56;;;;;;;5.50;3.00;;;;;;;;;;5079552;28;20048;-81
2023/08/18 13:36:23;;;;;;;3.72;3.10;;;;;;;;;;5078853;28;20415;-80
2023/08/18 13:38:50;;;;;;;3.20;3.10;;;;;;;;;;5079818;28;20044;-81
2023/08/18 13:41:17;;;;;;;3.55;3.30;;;;;;;;;;5081310;28;20137;-83
2023/08/18 13:43:45;;;;;;;3.90;2.60;;;;;;;;;;5078777;28;20046;-81
2023/08/18 13:46:12;;;;;;;4.60;3.00;;;;;;;;;;5080609;28;20052;-81
2023/08/18 13:48:39;;;;;;;3.63;3.22;;;;;;;;;;5074719;28;20132;-81
2023/08/18 13:51:07;;;;;;;3.33;3.13;;;;;;;;;;5076412;28;20052;-81
2023/08/18 13:53:34;;;;;;;3.72;3.40;;;;;;;;;;5074374;28;20418;-80
2023/08/18 13:56:01;;;;;;;4.03;3.72;;;;;;;;;;5076331;28;20102;-81
2023/08/18 13:58:28;;;;;;;4.93;3.30;;;;;;;;;;5075764;28;20057;-82
2023/08/18 14:00:59;;;;;;;3.13;2.90;;;;;;;;;;5073947;28;20136;-81
2023/08/18 14:03:26;;;;;;;5.00;3.47;;;;;;;;;;5078502;28;20040;-81
2023/08/18 14:05:53;;;;;;;6.97;3.63;;;;;;;;;;5089174;28;20049;-81
2023/08/18 14:08:21;;;;;;;3.25;3.05;;;;;;;;;;5088617;28;20045;-83
2023/08/18 14:10:48;;;;;;;4.18;3.08;;;;;;;;;;5087657;28;20044;-82
2023/08/18 14:13:15;;;;;;;4.47;3.25;;;;;;;;;;5087354;28;20113;-82
2023/08/18 14:15:43;;;;;;;11.05;3.88;;;;;;;;;;5086041;28;20078;-82
2023/08/18 14:18:15;;;;;;;3.58;3.28;;;;;;;;;;5085867;28;20045;-82
2023/08/18 14:20:45;;;;;;;3.63;3.40;;;;;;;;;;5082126;28;20052;-81
2023/08/18 14:23:13;;;;;;;3.00;2.90;;;;;;;;;;5083911;28;20279;-82
2023/08/18 14:25:40;;;;;;;3.60;3.40;;;;;;;;;;5080670;28;20052;-83
2023/08/18 14:28:07;;;;;;;3.40;3.20;;;;;;;;;;5080676;28;20178;-82
2023/08/18 14:30:35;;;;;;;4.32;3.00;;;;;;;;;;5081668;28;20059;-82
2023/08/18 14:33:02;;;;;;;4.15;3.03;;;;;;;;;;5079465;28;20126;-80
2023/08/18 14:35:29;;;;;;;3.65;3.42;;;;;;;;;;5078954;28;20050;-82
2023/08/18 14:37:57;;;;;;;3.63;3.33;;;;;;;;;;5079978;28;20491;-82
2023/08/18 14:40:24;;;;;;;3.83;3.05;;;;;;;;;;5078704;28;20048;-82